sensor_id;sensor_type;location;lat;lon;timestamp;P1;durP1;ratioP1;P2;durP2;ratioP2
52102;SDS011;38101;53.126;6.878;2022-08-21T00:01:47;7.75;;;5.22;;
52102;SDS011;38101;53.126;6.878;2022-08-21T00:04:13;5.97;;;4.20;;
52102;SDS011;38101;53.126;6.878;2022-08-21T00:06:39;7.28;;;4.60;;
52102;SDS011;38101;53.126;6.878;2022-08-21T00:09:05;7.65;;;4.85;;
52102;SDS011;38101;53.126;6.878;2022-08-21T00:11:33;6.80;;;4.53;;
52102;SDS011;38101;53.126;6.878;2022-08-21T00:14:02;7.18;;;4.35;;
52102;SDS011;38101;53.126;6.878;2022-08-21T00:16:28;6.93;;;5.07;;
52102;SDS011;38101;53.126;6.878;2022-08-21T00:18:54;7.38;;;5.10;;
52102;SDS011;38101;53.126;6.878;2022-08-21T00:21:20;7.40;;;5.07;;
52102;SDS011;38101;53.126;6.878;2022-08-21T00:23:47;9.60;;;6.40;;
52102;SDS011;38101;53.126;6.878;2022-08-21T00:26:12;8.18;;;6.72;;
52102;SDS011;38101;53.126;6.878;2022-08-21T00:28:38;10.77;;;6.60;;
52102;SDS011;38101;53.126;6.878;2022-08-21T00:31:04;7.60;;;5.22;;
52102;SDS011;38101;53.126;6.878;2022-08-21T00:33:30;7.30;;;5.13;;
52102;SDS011;38101;53.126;6.878;2022-08-21T00:35:56;5.43;;;4.80;;
52102;SDS011;38101;53.126;6.878;2022-08-21T00:38:22;6.25;;;4.75;;
52102;SDS011;38101;53.126;6.878;2022-08-21T00:40:50;9.20;;;4.88;;
52102;SDS011;38101;53.126;6.878;2022-08-21T00:43:20;6.88;;;4.80;;
52102;SDS011;38101;53.126;6.878;2022-08-21T00:45:48;5.53;;;4.45;;
52102;SDS011;38101;53.126;6.878;2022-08-21T00:48:14;6.63;;;4.80;;
52102;SDS011;38101;53.126;6.878;2022-08-21T00:50:44;7.53;;;4.45;;
52102;SDS011;38101;53.126;6.878;2022-08-21T00:53:15;7.15;;;4.72;;
52102;SDS011;38101;53.126;6.878;2022-08-21T00:55:41;5.43;;;3.88;;
52102;SDS011;38101;53.126;6.878;2022-08-21T00:58:08;7.88;;;4.20;;
52102;SDS011;38101;53.126;6.878;2022-08-21T01:00:36;5.20;;;4.32;;
52102;SDS011;38101;53.126;6.878;2022-08-21T01:03:14;5.60;;;4.07;;
52102;SDS011;38101;53.126;6.878;2022-08-21T01:05:43;6.43;;;4.57;;
52102;SDS011;38101;53.126;6.878;2022-08-21T01:08:11;7.25;;;4.80;;
52102;SDS011;38101;53.126;6.878;2022-08-21T01:10:38;7.53;;;4.60;;
52102;SDS011;38101;53.126;6.878;2022-08-21T01:13:05;5.97;;;4.35;;
52102;SDS011;38101;53.126;6.878;2022-08-21T01:15:34;6.88;;;4.78;;
52102;SDS011;38101;53.126;6.878;2022-08-21T01:18:03;6.40;;;4.03;;
52102;SDS011;38101;53.126;6.878;2022-08-21T01:20:30;5.75;;;4.32;;
52102;SDS011;38101;53.126;6.878;2022-08-21T01:22:56;6.35;;;4.47;;
52102;SDS011;38101;53.126;6.878;2022-08-21T01:25:22;8.63;;;4.35;;
52102;SDS011;38101;53.126;6.878;2022-08-21T01:27:48;5.82;;;4.22;;
52102;SDS011;38101;53.126;6.878;2022-08-21T01:30:16;5.47;;;4.28;;
52102;SDS011;38101;53.126;6.878;2022-08-21T01:32:47;6.28;;;4.20;;
52102;SDS011;38101;53.126;6.878;2022-08-21T01:35:14;5.57;;;3.80;;
52102;SDS011;38101;53.126;6.878;2022-08-21T01:37:41;5.32;;;3.90;;
52102;SDS011;38101;53.126;6.878;2022-08-21T01:40:08;5.65;;;3.30;;
52102;SDS011;38101;53.126;6.878;2022-08-21T01:42:35;5.68;;;3.50;;
52102;SDS011;38101;53.126;6.878;2022-08-21T01:45:02;4.68;;;4.05;;
52102;SDS011;38101;53.126;6.878;2022-08-21T01:47:29;5.20;;;3.72;;
52102;SDS011;38101;53.126;6.878;2022-08-21T01:49:54;4.78;;;3.38;;
52102;SDS011;38101;53.126;6.878;2022-08-21T01:52:20;5.07;;;3.72;;
52102;SDS011;38101;53.126;6.878;2022-08-21T01:54:46;7.20;;;4.20;;
52102;SDS011;38101;53.126;6.878;2022-08-21T01:57:12;6.18;;;3.50;;
52102;SDS011;38101;53.126;6.878;2022-08-21T01:59:38;8.90;;;4.15;;
52102;SDS011;38101;53.126;6.878;2022-08-21T02:02:05;6.20;;;3.55;;
52102;SDS011;38101;53.126;6.878;2022-08-21T02:04:31;5.47;;;3.38;;
52102;SDS011;38101;53.126;6.878;2022-08-21T02:06:57;6.13;;;3.60;;
52102;SDS011;38101;53.126;6.878;2022-08-21T02:09:24;6.05;;;3.88;;
52102;SDS011;38101;53.126;6.878;2022-08-21T02:11:50;5.63;;;3.20;;
52102;SDS011;38101;53.126;6.878;2022-08-21T02:14:16;4.38;;;3.35;;
52102;SDS011;38101;53.126;6.878;2022-08-21T02:16:43;5.85;;;3.40;;
52102;SDS011;38101;53.126;6.878;2022-08-21T02:19:10;5.38;;;3.30;;
52102;SDS011;38101;53.126;6.878;2022-08-21T02:21:37;7.57;;;3.90;;
52102;SDS011;38101;53.126;6.878;2022-08-21T02:24:03;5.68;;;3.65;;
52102;SDS011;38101;53.126;6.878;2022-08-21T02:26:30;6.95;;;3.95;;
52102;SDS011;38101;53.126;6.878;2022-08-21T02:28:56;4.57;;;3.13;;
52102;SDS011;38101;53.126;6.878;2022-08-21T02:31:21;6.00;;;3.45;;
52102;SDS011;38101;53.126;6.878;2022-08-21T02:33:47;5.68;;;3.72;;
52102;SDS011;38101;53.126;6.878;2022-08-21T02:36:13;6.05;;;3.67;;
52102;SDS011;38101;53.126;6.878;2022-08-21T02:38:40;5.28;;;3.60;;
52102;SDS011;38101;53.126;6.878;2022-08-21T02:41:08;7.40;;;4.25;;
52102;SDS011;38101;53.126;6.878;2022-08-21T02:43:41;6.20;;;3.80;;
52102;SDS011;38101;53.126;6.878;2022-08-21T02:46:08;5.78;;;3.67;;
52102;SDS011;38101;53.126;6.878;2022-08-21T02:48:36;7.97;;;4.22;;
52102;SDS011;38101;53.126;6.878;2022-08-21T02:51:04;6.07;;;3.72;;
52102;SDS011;38101;53.126;6.878;2022-08-21T02:53:48;8.75;;;4.05;;
52102;SDS011;38101;53.126;6.878;2022-08-21T02:56:16;7.03;;;4.03;;
52102;SDS011;38101;53.126;6.878;2022-08-21T02:58:45;6.85;;;4.35;;
52102;SDS011;38101;53.126;6.878;2022-08-21T03:01:14;6.28;;;3.90;;
52102;SDS011;38101;53.126;6.878;2022-08-21T03:03:42;7.80;;;4.65;;
52102;SDS011;38101;53.126;6.878;2022-08-21T03:06:09;6.97;;;4.13;;
52102;SDS011;38101;53.126;6.878;2022-08-21T03:08:37;6.63;;;4.70;;
52102;SDS011;38101;53.126;6.878;2022-08-21T03:11:03;6.68;;;4.75;;
52102;SDS011;38101;53.126;6.878;2022-08-21T03:13:30;8.27;;;4.60;;
52102;SDS011;38101;53.126;6.878;2022-08-21T03:15:57;7.38;;;4.68;;
52102;SDS011;38101;53.126;6.878;2022-08-21T03:18:22;9.27;;;5.28;;
52102;SDS011;38101;53.126;6.878;2022-08-21T03:20:48;7.57;;;4.65;;
52102;SDS011;38101;53.126;6.878;2022-08-21T03:23:15;8.52;;;4.72;;
52102;SDS011;38101;53.126;6.878;2022-08-21T03:25:42;7.65;;;4.93;;
52102;SDS011;38101;53.126;6.878;2022-08-21T03:28:10;7.22;;;5.05;;
52102;SDS011;38101;53.126;6.878;2022-08-21T03:30:37;6.47;;;4.85;;
52102;SDS011;38101;53.126;6.878;2022-08-21T03:33:03;8.23;;;5.05;;
52102;SDS011;38101;53.126;6.878;2022-08-21T03:35:29;7.35;;;4.55;;
52102;SDS011;38101;53.126;6.878;2022-08-21T03:37:55;8.00;;;5.03;;
52102;SDS011;38101;53.126;6.878;2022-08-21T03:40:21;8.35;;;4.85;;
52102;SDS011;38101;53.126;6.878;2022-08-21T03:42:49;6.97;;;5.07;;
52102;SDS011;38101;53.126;6.878;2022-08-21T03:45:15;7.18;;;5.22;;
52102;SDS011;38101;53.126;6.878;2022-08-21T03:47:52;8.32;;;4.82;;
52102;SDS011;38101;53.126;6.878;2022-08-21T03:50:23;8.05;;;5.20;;
52102;SDS011;38101;53.126;6.878;2022-08-21T03:52:50;9.73;;;5.50;;
52102;SDS011;38101;53.126;6.878;2022-08-21T03:55:16;8.93;;;4.90;;
52102;SDS011;38101;53.126;6.878;2022-08-21T03:57:41;9.32;;;5.35;;
52102;SDS011;38101;53.126;6.878;2022-08-21T04:00:07;8.00;;;4.82;;
52102;SDS011;38101;53.126;6.878;2022-08-21T04:02:36;7.75;;;5.53;;
52102;SDS011;38101;53.126;6.878;2022-08-21T04:05:02;8.85;;;5.13;;
52102;SDS011;38101;53.126;6.878;2022-08-21T04:07:28;7.78;;;5.75;;
52102;SDS011;38101;53.126;6.878;2022-08-21T04:09:53;10.00;;;5.30;;
52102;SDS011;38101;53.126;6.878;2022-08-21T04:12:20;7.82;;;5.30;;
52102;SDS011;38101;53.126;6.878;2022-08-21T04:14:46;7.47;;;5.20;;
52102;SDS011;38101;53.126;6.878;2022-08-21T04:17:11;7.47;;;5.50;;
52102;SDS011;38101;53.126;6.878;2022-08-21T04:19:37;5.95;;;5.07;;
52102;SDS011;38101;53.126;6.878;2022-08-21T04:22:03;10.02;;;5.40;;
52102;SDS011;38101;53.126;6.878;2022-08-21T04:24:29;7.55;;;5.00;;
52102;SDS011;38101;53.126;6.878;2022-08-21T04:26:54;9.38;;;5.45;;
52102;SDS011;38101;53.126;6.878;2022-08-21T04:29:21;10.95;;;5.40;;
52102;SDS011;38101;53.126;6.878;2022-08-21T04:31:47;10.02;;;5.63;;
52102;SDS011;38101;53.126;6.878;2022-08-21T04:34:13;9.27;;;5.10;;
52102;SDS011;38101;53.126;6.878;2022-08-21T04:36:38;7.63;;;5.38;;
52102;SDS011;38101;53.126;6.878;2022-08-21T04:39:04;9.38;;;5.45;;
52102;SDS011;38101;53.126;6.878;2022-08-21T04:41:30;8.18;;;5.80;;
52102;SDS011;38101;53.126;6.878;2022-08-21T04:43:56;8.35;;;5.28;;
52102;SDS011;38101;53.126;6.878;2022-08-21T04:46:23;10.32;;;5.68;;
52102;SDS011;38101;53.126;6.878;2022-08-21T04:48:48;9.27;;;5.30;;
52102;SDS011;38101;53.126;6.878;2022-08-21T04:51:16;9.75;;;5.30;;
52102;SDS011;38101;53.126;6.878;2022-08-21T04:53:45;8.38;;;4.97;;
52102;SDS011;38101;53.126;6.878;2022-08-21T04:56:18;7.50;;;5.35;;
52102;SDS011;38101;53.126;6.878;2022-08-21T04:58:55;10.63;;;5.43;;
52102;SDS011;38101;53.126;6.878;2022-08-21T05:01:24;9.05;;;5.90;;
52102;SDS011;38101;53.126;6.878;2022-08-21T05:03:55;7.40;;;5.30;;
52102;SDS011;38101;53.126;6.878;2022-08-21T05:06:23;7.07;;;5.20;;
52102;SDS011;38101;53.126;6.878;2022-08-21T05:08:50;10.05;;;5.50;;
52102;SDS011;38101;53.126;6.878;2022-08-21T05:11:18;9.20;;;5.78;;
52102;SDS011;38101;53.126;6.878;2022-08-21T05:13:45;9.95;;;6.00;;
52102;SDS011;38101;53.126;6.878;2022-08-21T05:16:11;8.23;;;5.65;;
52102;SDS011;38101;53.126;6.878;2022-08-21T05:18:37;8.55;;;5.95;;
52102;SDS011;38101;53.126;6.878;2022-08-21T05:21:03;8.40;;;5.60;;
52102;SDS011;38101;53.126;6.878;2022-08-21T05:23:29;9.07;;;5.15;;
52102;SDS011;38101;53.126;6.878;2022-08-21T05:25:55;8.50;;;5.15;;
52102;SDS011;38101;53.126;6.878;2022-08-21T05:28:21;9.07;;;4.90;;
52102;SDS011;38101;53.126;6.878;2022-08-21T05:30:47;8.15;;;4.85;;
52102;SDS011;38101;53.126;6.878;2022-08-21T05:33:13;8.40;;;5.53;;
52102;SDS011;38101;53.126;6.878;2022-08-21T05:35:39;9.77;;;5.53;;
52102;SDS011;38101;53.126;6.878;2022-08-21T05:38:05;7.72;;;5.05;;
52102;SDS011;38101;53.126;6.878;2022-08-21T05:40:31;9.82;;;5.63;;
52102;SDS011;38101;53.126;6.878;2022-08-21T05:42:57;7.65;;;5.45;;
52102;SDS011;38101;53.126;6.878;2022-08-21T05:45:27;9.10;;;5.15;;
52102;SDS011;38101;53.126;6.878;2022-08-21T05:47:54;12.63;;;5.97;;
52102;SDS011;38101;53.126;6.878;2022-08-21T05:50:20;8.98;;;5.47;;
52102;SDS011;38101;53.126;6.878;2022-08-21T05:52:46;11.32;;;5.40;;
52102;SDS011;38101;53.126;6.878;2022-08-21T05:55:12;9.35;;;5.22;;
52102;SDS011;38101;53.126;6.878;2022-08-21T05:57:37;9.57;;;5.93;;
52102;SDS011;38101;53.126;6.878;2022-08-21T06:00:06;9.25;;;4.85;;
52102;SDS011;38101;53.126;6.878;2022-08-21T06:02:34;9.27;;;4.78;;
52102;SDS011;38101;53.126;6.878;2022-08-21T06:05:00;8.13;;;5.32;;
52102;SDS011;38101;53.126;6.878;2022-08-21T06:07:26;9.88;;;6.10;;
52102;SDS011;38101;53.126;6.878;2022-08-21T06:09:52;7.82;;;5.50;;
52102;SDS011;38101;53.126;6.878;2022-08-21T06:12:18;9.15;;;5.50;;
52102;SDS011;38101;53.126;6.878;2022-08-21T06:14:44;9.43;;;5.35;;
52102;SDS011;38101;53.126;6.878;2022-08-21T06:17:10;9.02;;;5.50;;
52102;SDS011;38101;53.126;6.878;2022-08-21T06:19:37;7.72;;;4.80;;
52102;SDS011;38101;53.126;6.878;2022-08-21T06:22:03;10.48;;;5.28;;
52102;SDS011;38101;53.126;6.878;2022-08-21T06:24:30;7.68;;;5.18;;
52102;SDS011;38101;53.126;6.878;2022-08-21T06:26:56;8.77;;;5.18;;
52102;SDS011;38101;53.126;6.878;2022-08-21T06:29:22;10.50;;;5.05;;
52102;SDS011;38101;53.126;6.878;2022-08-21T06:31:48;9.32;;;5.22;;
52102;SDS011;38101;53.126;6.878;2022-08-21T06:34:16;8.27;;;4.88;;
52102;SDS011;38101;53.126;6.878;2022-08-21T06:36:42;10.02;;;5.28;;
52102;SDS011;38101;53.126;6.878;2022-08-21T06:39:09;8.32;;;5.30;;
52102;SDS011;38101;53.126;6.878;2022-08-21T06:41:35;7.75;;;4.93;;
52102;SDS011;38101;53.126;6.878;2022-08-21T06:44:01;9.98;;;5.50;;
52102;SDS011;38101;53.126;6.878;2022-08-21T06:46:28;9.65;;;5.35;;
52102;SDS011;38101;53.126;6.878;2022-08-21T06:48:55;8.60;;;5.32;;
52102;SDS011;38101;53.126;6.878;2022-08-21T06:51:21;7.93;;;4.88;;
52102;SDS011;38101;53.126;6.878;2022-08-21T06:53:48;8.85;;;5.85;;
52102;SDS011;38101;53.126;6.878;2022-08-21T06:56:14;9.98;;;5.20;;
52102;SDS011;38101;53.126;6.878;2022-08-21T06:58:40;10.27;;;4.95;;
52102;SDS011;38101;53.126;6.878;2022-08-21T07:01:06;9.85;;;5.07;;
52102;SDS011;38101;53.126;6.878;2022-08-21T07:03:34;7.47;;;5.03;;
52102;SDS011;38101;53.126;6.878;2022-08-21T07:06:02;12.02;;;5.15;;
52102;SDS011;38101;53.126;6.878;2022-08-21T07:08:29;7.45;;;4.65;;
52102;SDS011;38101;53.126;6.878;2022-08-21T07:10:56;8.98;;;4.32;;
52102;SDS011;38101;53.126;6.878;2022-08-21T07:13:24;9.52;;;4.53;;
52102;SDS011;38101;53.126;6.878;2022-08-21T07:15:50;7.57;;;4.38;;
52102;SDS011;38101;53.126;6.878;2022-08-21T07:18:16;11.45;;;4.07;;
52102;SDS011;38101;53.126;6.878;2022-08-21T07:20:42;12.60;;;4.57;;
52102;SDS011;38101;53.126;6.878;2022-08-21T07:23:10;7.32;;;3.53;;
52102;SDS011;38101;53.126;6.878;2022-08-21T07:25:39;7.22;;;3.45;;
52102;SDS011;38101;53.126;6.878;2022-08-21T07:28:04;7.22;;;3.88;;
52102;SDS011;38101;53.126;6.878;2022-08-21T07:30:30;7.78;;;3.65;;
52102;SDS011;38101;53.126;6.878;2022-08-21T07:32:56;12.38;;;4.32;;
52102;SDS011;38101;53.126;6.878;2022-08-21T07:35:22;9.85;;;4.00;;
52102;SDS011;38101;53.126;6.878;2022-08-21T07:37:48;9.07;;;3.38;;
52102;SDS011;38101;53.126;6.878;2022-08-21T07:40:15;11.57;;;4.18;;
52102;SDS011;38101;53.126;6.878;2022-08-21T07:42:45;6.63;;;3.92;;
52102;SDS011;38101;53.126;6.878;2022-08-21T07:45:14;8.20;;;4.07;;
52102;SDS011;38101;53.126;6.878;2022-08-21T07:47:41;8.77;;;4.00;;
52102;SDS011;38101;53.126;6.878;2022-08-21T07:50:07;10.55;;;4.00;;
52102;SDS011;38101;53.126;6.878;2022-08-21T07:52:33;8.88;;;4.53;;
52102;SDS011;38101;53.126;6.878;2022-08-21T07:54:59;6.47;;;4.10;;
52102;SDS011;38101;53.126;6.878;2022-08-21T07:57:25;10.00;;;4.07;;
52102;SDS011;38101;53.126;6.878;2022-08-21T07:59:50;8.52;;;4.15;;
52102;SDS011;38101;53.126;6.878;2022-08-21T08:02:29;9.82;;;4.10;;
52102;SDS011;38101;53.126;6.878;2022-08-21T08:05:02;8.88;;;3.80;;
52102;SDS011;38101;53.126;6.878;2022-08-21T08:07:29;7.78;;;4.30;;
52102;SDS011;38101;53.126;6.878;2022-08-21T08:09:55;9.27;;;4.30;;
52102;SDS011;38101;53.126;6.878;2022-08-21T08:12:21;8.32;;;3.90;;
52102;SDS011;38101;53.126;6.878;2022-08-21T08:14:47;8.50;;;4.65;;
52102;SDS011;38101;53.126;6.878;2022-08-21T08:17:13;8.38;;;4.10;;
52102;SDS011;38101;53.126;6.878;2022-08-21T08:19:39;11.27;;;3.80;;
52102;SDS011;38101;53.126;6.878;2022-08-21T08:22:15;7.32;;;3.83;;
52102;SDS011;38101;53.126;6.878;2022-08-21T08:24:44;8.05;;;4.15;;
52102;SDS011;38101;53.126;6.878;2022-08-21T08:27:11;10.30;;;4.20;;
52102;SDS011;38101;53.126;6.878;2022-08-21T08:29:36;9.18;;;4.13;;
52102;SDS011;38101;53.126;6.878;2022-08-21T08:32:03;10.20;;;4.40;;
52102;SDS011;38101;53.126;6.878;2022-08-21T08:34:30;10.77;;;3.90;;
52102;SDS011;38101;53.126;6.878;2022-08-21T08:36:55;12.48;;;4.07;;
52102;SDS011;38101;53.126;6.878;2022-08-21T08:39:23;6.57;;;3.40;;
52102;SDS011;38101;53.126;6.878;2022-08-21T08:41:49;8.40;;;3.97;;
52102;SDS011;38101;53.126;6.878;2022-08-21T08:44:24;9.25;;;3.42;;
52102;SDS011;38101;53.126;6.878;2022-08-21T08:46:50;10.68;;;3.65;;
52102;SDS011;38101;53.126;6.878;2022-08-21T08:49:20;9.88;;;3.60;;
52102;SDS011;38101;53.126;6.878;2022-08-21T08:51:55;7.05;;;3.40;;
52102;SDS011;38101;53.126;6.878;2022-08-21T08:54:35;7.40;;;3.13;;
52102;SDS011;38101;53.126;6.878;2022-08-21T08:57:10;6.20;;;3.10;;
52102;SDS011;38101;53.126;6.878;2022-08-21T08:59:45;6.38;;;3.40;;
52102;SDS011;38101;53.126;6.878;2022-08-21T09:02:14;7.65;;;3.58;;
52102;SDS011;38101;53.126;6.878;2022-08-21T09:04:42;9.00;;;3.33;;
52102;SDS011;38101;53.126;6.878;2022-08-21T09:09:48;7.80;;;3.25;;
52102;SDS011;38101;53.126;6.878;2022-08-21T09:26:38;9.70;;;3.45;;
52102;SDS011;38101;53.126;6.878;2022-08-21T09:29:22;5.88;;;2.75;;
52102;SDS011;38101;53.126;6.878;2022-08-21T09:31:54;9.30;;;3.50;;
52102;SDS011;38101;53.126;6.878;2022-08-21T09:34:38;6.63;;;3.28;;
52102;SDS011;38101;53.126;6.878;2022-08-21T09:37:04;6.80;;;2.90;;
52102;SDS011;38101;53.126;6.878;2022-08-21T09:39:31;7.07;;;2.80;;
52102;SDS011;38101;53.126;6.878;2022-08-21T09:42:05;5.82;;;2.70;;
52102;SDS011;38101;53.126;6.878;2022-08-21T09:44:34;5.90;;;2.50;;
52102;SDS011;38101;53.126;6.878;2022-08-21T09:47:08;8.88;;;3.20;;
52102;SDS011;38101;53.126;6.878;2022-08-21T09:49:38;7.15;;;3.00;;
52102;SDS011;38101;53.126;6.878;2022-08-21T09:52:12;5.45;;;2.63;;
52102;SDS011;38101;53.126;6.878;2022-08-21T09:54:48;7.13;;;3.08;;
52102;SDS011;38101;53.126;6.878;2022-08-21T09:57:19;5.05;;;2.65;;
52102;SDS011;38101;53.126;6.878;2022-08-21T10:02:49;6.00;;;3.00;;
52102;SDS011;38101;53.126;6.878;2022-08-21T10:05:16;10.73;;;2.80;;
52102;SDS011;38101;53.126;6.878;2022-08-21T10:07:50;5.10;;;2.42;;
52102;SDS011;38101;53.126;6.878;2022-08-21T10:10:21;6.53;;;2.70;;
52102;SDS011;38101;53.126;6.878;2022-08-21T10:20:45;6.53;;;2.63;;
52102;SDS011;38101;53.126;6.878;2022-08-21T10:23:47;7.30;;;2.75;;
52102;SDS011;38101;53.126;6.878;2022-08-21T10:26:43;7.13;;;2.50;;
52102;SDS011;38101;53.126;6.878;2022-08-21T10:41:03;6.82;;;2.50;;
52102;SDS011;38101;53.126;6.878;2022-08-21T10:43:36;4.10;;;2.45;;
52102;SDS011;38101;53.126;6.878;2022-08-21T10:46:20;7.05;;;2.60;;
52102;SDS011;38101;53.126;6.878;2022-08-21T10:49:11;5.93;;;2.30;;
52102;SDS011;38101;53.126;6.878;2022-08-21T10:51:49;6.50;;;2.55;;
52102;SDS011;38101;53.126;6.878;2022-08-21T10:54:36;5.80;;;2.47;;
52102;SDS011;38101;53.126;6.878;2022-08-21T10:57:16;5.03;;;2.10;;
52102;SDS011;38101;53.126;6.878;2022-08-21T11:00:05;8.98;;;3.10;;
52102;SDS011;38101;53.126;6.878;2022-08-21T11:03:20;6.50;;;2.72;;
52102;SDS011;38101;53.126;6.878;2022-08-21T11:06:31;6.63;;;2.60;;
52102;SDS011;38101;53.126;6.878;2022-08-21T11:08:55;5.35;;;2.40;;
52102;SDS011;38101;53.126;6.878;2022-08-21T11:14:19;5.72;;;2.40;;
52102;SDS011;38101;53.126;6.878;2022-08-21T11:17:09;5.13;;;2.40;;
52102;SDS011;38101;53.126;6.878;2022-08-21T11:24:57;5.82;;;2.65;;
52102;SDS011;38101;53.126;6.878;2022-08-21T11:27:30;5.47;;;2.70;;
52102;SDS011;38101;53.126;6.878;2022-08-21T11:29:58;4.93;;;2.35;;
52102;SDS011;38101;53.126;6.878;2022-08-21T11:38:19;5.93;;;2.47;;
52102;SDS011;38101;53.126;6.878;2022-08-21T11:43:56;4.80;;;2.05;;
52102;SDS011;38101;53.126;6.878;2022-08-21T11:52:10;8.27;;;3.10;;
52102;SDS011;38101;53.126;6.878;2022-08-21T11:57:29;5.50;;;2.58;;
52102;SDS011;38101;53.126;6.878;2022-08-21T12:00:12;6.40;;;2.20;;
52102;SDS011;38101;53.126;6.878;2022-08-21T12:02:50;7.57;;;2.40;;
52102;SDS011;38101;53.126;6.878;2022-08-21T12:05:37;5.95;;;2.55;;
52102;SDS011;38101;53.126;6.878;2022-08-21T12:13:51;7.57;;;2.78;;
52102;SDS011;38101;53.126;6.878;2022-08-21T12:19:05;4.40;;;2.63;;
52102;SDS011;38101;53.126;6.878;2022-08-21T12:21:33;5.22;;;2.80;;
52102;SDS011;38101;53.126;6.878;2022-08-21T12:26:59;6.35;;;2.80;;
52102;SDS011;38101;53.126;6.878;2022-08-21T12:29:43;5.68;;;2.80;;
52102;SDS011;38101;53.126;6.878;2022-08-21T12:34:48;7.32;;;3.03;;
52102;SDS011;38101;53.126;6.878;2022-08-21T12:40:17;5.15;;;2.50;;
52102;SDS011;38101;53.126;6.878;2022-08-21T12:43:01;6.97;;;2.40;;
52102;SDS011;38101;53.126;6.878;2022-08-21T12:48:09;4.75;;;2.33;;
52102;SDS011;38101;53.126;6.878;2022-08-21T12:50:40;7.40;;;3.22;;
52102;SDS011;38101;53.126;6.878;2022-08-21T12:53:59;7.60;;;2.60;;
52102;SDS011;38101;53.126;6.878;2022-08-21T12:56:03;7.32;;;3.10;;
52102;SDS011;38101;53.126;6.878;2022-08-21T12:58:34;7.45;;;3.13;;
52102;SDS011;38101;53.126;6.878;2022-08-21T13:01:04;8.43;;;2.72;;
52102;SDS011;38101;53.126;6.878;2022-08-21T13:03:34;7.95;;;3.05;;
52102;SDS011;38101;53.126;6.878;2022-08-21T13:06:05;6.13;;;2.50;;
52102;SDS011;38101;53.126;6.878;2022-08-21T13:08:32;5.22;;;2.65;;
52102;SDS011;38101;53.126;6.878;2022-08-21T13:11:02;6.93;;;2.55;;
52102;SDS011;38101;53.126;6.878;2022-08-21T13:13:30;6.80;;;2.45;;
52102;SDS011;38101;53.126;6.878;2022-08-21T13:16:04;5.95;;;2.50;;
52102;SDS011;38101;53.126;6.878;2022-08-21T13:18:33;5.10;;;2.40;;
52102;SDS011;38101;53.126;6.878;2022-08-21T13:21:05;7.30;;;3.03;;
52102;SDS011;38101;53.126;6.878;2022-08-21T13:23:40;5.72;;;2.80;;
52102;SDS011;38101;53.126;6.878;2022-08-21T13:26:16;5.68;;;2.50;;
52102;SDS011;38101;53.126;6.878;2022-08-21T13:28:44;6.30;;;3.00;;
52102;SDS011;38101;53.126;6.878;2022-08-21T13:31:12;7.80;;;2.97;;
52102;SDS011;38101;53.126;6.878;2022-08-21T13:33:53;9.10;;;3.10;;
52102;SDS011;38101;53.126;6.878;2022-08-21T13:36:21;6.20;;;2.85;;
52102;SDS011;38101;53.126;6.878;2022-08-21T13:38:51;8.32;;;2.80;;
52102;SDS011;38101;53.126;6.878;2022-08-21T13:41:21;8.10;;;2.88;;
52102;SDS011;38101;53.126;6.878;2022-08-21T13:43:50;9.13;;;2.78;;
52102;SDS011;38101;53.126;6.878;2022-08-21T13:46:23;7.50;;;2.70;;
52102;SDS011;38101;53.126;6.878;2022-08-21T13:48:52;7.65;;;3.15;;
52102;SDS011;38101;53.126;6.878;2022-08-21T13:51:19;5.07;;;2.72;;
52102;SDS011;38101;53.126;6.878;2022-08-21T13:53:49;6.28;;;2.60;;
52102;SDS011;38101;53.126;6.878;2022-08-21T14:01:19;6.80;;;2.50;;
52102;SDS011;38101;53.126;6.878;2022-08-21T14:03:48;6.00;;;2.90;;
52102;SDS011;38101;53.126;6.878;2022-08-21T14:06:17;5.78;;;2.90;;
52102;SDS011;38101;53.126;6.878;2022-08-21T14:08:50;6.97;;;3.03;;
52102;SDS011;38101;53.126;6.878;2022-08-21T14:11:20;7.63;;;2.63;;
52102;SDS011;38101;53.126;6.878;2022-08-21T14:13:55;6.68;;;2.55;;
52102;SDS011;38101;53.126;6.878;2022-08-21T14:16:25;5.10;;;2.33;;
52102;SDS011;38101;53.126;6.878;2022-08-21T14:21:27;7.63;;;3.03;;
52102;SDS011;38101;53.126;6.878;2022-08-21T14:24:12;6.00;;;2.53;;
52102;SDS011;38101;53.126;6.878;2022-08-21T14:26:44;5.90;;;2.53;;
52102;SDS011;38101;53.126;6.878;2022-08-21T14:29:14;5.15;;;2.33;;
52102;SDS011;38101;53.126;6.878;2022-08-21T14:31:42;5.72;;;2.50;;
52102;SDS011;38101;53.126;6.878;2022-08-21T14:34:10;5.38;;;2.47;;
52102;SDS011;38101;53.126;6.878;2022-08-21T14:36:38;5.70;;;2.45;;
52102;SDS011;38101;53.126;6.878;2022-08-21T14:39:04;6.82;;;2.33;;
52102;SDS011;38101;53.126;6.878;2022-08-21T14:41:29;9.52;;;2.78;;
52102;SDS011;38101;53.126;6.878;2022-08-21T14:43:55;7.00;;;2.53;;
52102;SDS011;38101;53.126;6.878;2022-08-21T14:46:23;4.53;;;2.45;;
52102;SDS011;38101;53.126;6.878;2022-08-21T14:48:51;5.90;;;2.40;;
52102;SDS011;38101;53.126;6.878;2022-08-21T14:51:16;5.72;;;2.50;;
52102;SDS011;38101;53.126;6.878;2022-08-21T14:53:42;7.63;;;2.67;;
52102;SDS011;38101;53.126;6.878;2022-08-21T14:56:08;7.63;;;2.75;;
52102;SDS011;38101;53.126;6.878;2022-08-21T14:58:37;7.07;;;2.45;;
52102;SDS011;38101;53.126;6.878;2022-08-21T15:01:04;4.47;;;2.60;;
52102;SDS011;38101;53.126;6.878;2022-08-21T15:03:34;6.60;;;2.40;;
52102;SDS011;38101;53.126;6.878;2022-08-21T15:06:01;4.53;;;2.40;;
52102;SDS011;38101;53.126;6.878;2022-08-21T15:08:28;5.18;;;2.38;;
52102;SDS011;38101;53.126;6.878;2022-08-21T15:10:54;5.68;;;2.60;;
52102;SDS011;38101;53.126;6.878;2022-08-21T15:13:21;6.95;;;2.42;;
52102;SDS011;38101;53.126;6.878;2022-08-21T15:15:48;7.03;;;2.47;;
52102;SDS011;38101;53.126;6.878;2022-08-21T15:18:17;5.68;;;2.30;;
52102;SDS011;38101;53.126;6.878;2022-08-21T15:20:47;6.00;;;2.40;;
52102;SDS011;38101;53.126;6.878;2022-08-21T15:23:13;5.10;;;2.30;;
52102;SDS011;38101;53.126;6.878;2022-08-21T15:25:43;5.72;;;2.55;;
52102;SDS011;38101;53.126;6.878;2022-08-21T15:28:09;5.65;;;2.78;;
52102;SDS011;38101;53.126;6.878;2022-08-21T15:30:37;5.43;;;2.30;;
52102;SDS011;38101;53.126;6.878;2022-08-21T15:33:04;6.43;;;2.33;;
52102;SDS011;38101;53.126;6.878;2022-08-21T15:35:30;6.22;;;2.47;;
52102;SDS011;38101;53.126;6.878;2022-08-21T15:37:56;5.95;;;2.58;;
52102;SDS011;38101;53.126;6.878;2022-08-21T15:40:22;6.80;;;2.67;;
52102;SDS011;38101;53.126;6.878;2022-08-21T15:42:49;4.60;;;2.50;;
52102;SDS011;38101;53.126;6.878;2022-08-21T15:45:18;5.70;;;2.53;;
52102;SDS011;38101;53.126;6.878;2022-08-21T15:47:44;6.80;;;2.63;;
52102;SDS011;38101;53.126;6.878;2022-08-21T15:50:11;5.53;;;2.40;;
52102;SDS011;38101;53.126;6.878;2022-08-21T15:52:38;7.47;;;2.40;;
52102;SDS011;38101;53.126;6.878;2022-08-21T15:55:05;6.22;;;2.25;;
52102;SDS011;38101;53.126;6.878;2022-08-21T15:57:31;7.63;;;2.78;;
52102;SDS011;38101;53.126;6.878;2022-08-21T16:00:00;5.35;;;2.97;;
52102;SDS011;38101;53.126;6.878;2022-08-21T16:02:34;5.70;;;2.42;;
52102;SDS011;38101;53.126;6.878;2022-08-21T16:05:01;6.85;;;2.78;;
52102;SDS011;38101;53.126;6.878;2022-08-21T16:07:27;5.68;;;2.85;;
52102;SDS011;38101;53.126;6.878;2022-08-21T16:09:53;5.22;;;2.33;;
52102;SDS011;38101;53.126;6.878;2022-08-21T16:13:03;7.32;;;3.03;;
52102;SDS011;38101;53.126;6.878;2022-08-21T16:15:18;7.55;;;2.70;;
52102;SDS011;38101;53.126;6.878;2022-08-21T16:17:44;6.82;;;2.55;;
52102;SDS011;38101;53.126;6.878;2022-08-21T16:20:15;6.88;;;2.58;;
52102;SDS011;38101;53.126;6.878;2022-08-21T16:22:44;7.45;;;2.40;;
52102;SDS011;38101;53.126;6.878;2022-08-21T16:25:10;6.93;;;2.67;;
52102;SDS011;38101;53.126;6.878;2022-08-21T16:27:37;6.53;;;2.83;;
52102;SDS011;38101;53.126;6.878;2022-08-21T16:30:04;8.23;;;2.85;;